Time;durP1;ratioP1;P1;durP2;ratioP2;P2;SDS_P1;SDS_P2;PMS_P1;PMS_P2;Temp;Humidity;BMP_temperature;BMP_pressure;BME280_temperature;BME280_humidity;BME280_pressure;Samples;Min_cycle;Max_cycle;Signal;HPM_P1;HPM_P2
2021/12/13 00:02:44;;;;;;;173.40;34.70;;;10.20;99.90;;;;;;5098534;28;20409;-70
2021/12/13 00:05:13;;;;;;;193.77;35.42;;;10.20;99.90;;;;;;5112298;28;20122;-69
2021/12/13 00:07:42;;;;;;;172.93;35.15;;;10.20;99.90;;;;;;5098150;28;20035;-68
2021/12/13 00:10:20;;;;;;;188.40;36.25;;;10.20;99.90;;;;;;5114198;28;20127;-67
2021/12/13 00:12:56;;;;;;;214.93;37.88;;;10.20;99.90;;;;;;5113489;28;20092;-70
2021/12/13 00:15:32;;;;;;;188.50;37.60;;;10.20;99.90;;;;;;5113275;28;20066;-69
2021/12/13 00:18:01;;;;;;;206.45;37.05;;;10.20;99.90;;;;;;5105507;28;20043;-67
2021/12/13 00:20:39;;;;;;;196.38;36.63;;;10.20;99.90;;;;;;5115237;27;20039;-68
2021/12/13 00:23:41;;;;;;;197.90;38.75;;;10.20;99.90;;;;;;5118467;27;20057;-68
2021/12/13 00:26:06;;;;;;;187.88;36.08;;;10.20;99.90;;;;;;5101459;27;20047;-68
2021/12/13 00:28:58;;;;;;;183.38;35.67;;;10.20;99.90;;;;;;5118912;27;20069;-69
2021/12/13 00:32:02;;;;;;;175.68;33.55;;;10.20;99.90;;;;;;5117438;27;20118;-69
2021/12/13 00:34:35;;;;;;;150.52;31.85;;;10.20;99.90;;;;;;5114353;27;20042;-70
2021/12/13 00:37:18;;;;;;;168.85;31.95;;;10.20;99.90;;;;;;5118656;27;20146;-68
2021/12/13 00:40:26;;;;;;;174.98;30.85;;;10.20;99.90;;;;;;5113906;27;20042;-67
2021/12/13 00:43:05;;;;;;;158.25;30.88;;;10.20;99.90;;;;;;5035402;28;20527;-69
2021/12/13 00:45:34;;;;;;;168.80;31.50;;;10.10;99.90;;;;;;5112257;27;20114;-68
2021/12/13 00:48:02;;;;;;;149.95;29.85;;;10.20;99.90;;;;;;5117622;27;20046;-69
2021/12/13 00:50:44;;;;;;;149.82;30.42;;;10.20;99.90;;;;;;5114501;27;20035;-70
2021/12/13 00:53:15;;;;;;;170.05;32.25;;;10.20;99.90;;;;;;5118718;27;20122;-70
2021/12/13 00:55:42;;;;;;;135.30;30.67;;;10.20;99.90;;;;;;5116804;27;20088;-69
2021/12/13 00:58:14;;;;;;;126.30;30.08;;;10.20;99.90;;;;;;5098868;27;20043;-70
2021/12/13 01:00:44;;;;;;;127.85;30.33;;;10.20;99.90;;;;;;5098305;27;20042;-69
2021/12/13 01:03:25;;;;;;;126.82;29.90;;;10.20;99.90;;;;;;5116097;27;20045;-71
2021/12/13 01:06:17;;;;;;;132.63;29.48;;;10.20;99.90;;;;;;5098687;27;20050;-69
2021/12/13 01:08:57;;;;;;;133.50;30.25;;;10.30;99.90;;;;;;5113117;27;20040;-69
2021/12/13 01:11:44;;;;;;;137.93;31.15;;;10.30;99.90;;;;;;5115677;27;20539;-71
2021/12/13 01:14:33;;;;;;;129.68;29.05;;;10.30;99.90;;;;;;5113073;27;20068;-74
2021/12/13 01:17:11;;;;;;;129.25;30.33;;;10.30;99.90;;;;;;5114802;27;20211;-72
2021/12/13 01:19:53;;;;;;;140.55;30.58;;;10.30;99.90;;;;;;5096258;27;20535;-70
2021/12/13 01:22:49;;;;;;;143.55;32.53;;;10.30;99.90;;;;;;5115751;27;20047;-70
2021/12/13 01:25:47;;;;;;;126.78;29.90;;;10.30;99.90;;;;;;5114518;27;20061;-71
2021/12/13 01:28:19;;;;;;;127.07;28.77;;;10.30;99.90;;;;;;5114767;27;20039;-69
2021/12/13 01:30:50;;;;;;;135.35;30.45;;;10.30;99.90;;;;;;5099133;27;20031;-70
2021/12/13 01:33:18;;;;;;;112.18;26.75;;;10.30;99.90;;;;;;5104616;27;20024;-68
2021/12/13 01:35:47;;;;;;;122.30;29.17;;;10.30;99.90;;;;;;5100287;27;20063;-70
2021/12/13 01:38:36;;;;;;;117.50;27.30;;;10.30;99.90;;;;;;5114255;27;20039;-70
2021/12/13 01:41:10;;;;;;;123.50;29.27;;;10.20;99.90;;;;;;5115048;27;20047;-68
2021/12/13 01:43:39;;;;;;;123.78;28.90;;;10.20;99.90;;;;;;5098078;27;20084;-69
2021/12/13 01:46:05;;;;;;;116.03;30.13;;;10.20;99.90;;;;;;5097569;27;20058;-70
2021/12/13 01:48:35;;;;;;;111.63;30.52;;;10.20;99.90;;;;;;5114876;27;20039;-69
2021/12/13 01:51:05;;;;;;;120.90;29.13;;;10.30;99.90;;;;;;5114826;27;20122;-69
2021/12/13 01:53:51;;;;;;;134.35;30.05;;;10.30;99.90;;;;;;5098932;27;20031;-69
2021/12/13 01:56:36;;;;;;;117.47;28.83;;;10.20;99.90;;;;;;5097459;27;20053;-71
2021/12/13 01:59:06;;;;;;;105.10;27.50;;;10.20;99.90;;;;;;5097386;27;20051;-70
2021/12/13 02:01:32;;;;;;;117.40;29.38;;;10.30;99.90;;;;;;5111802;27;20561;-68
2021/12/13 02:04:07;;;;;;;120.68;29.58;;;10.30;99.90;;;;;;5109068;27;20512;-68
2021/12/13 02:06:45;;;;;;;122.00;29.20;;;10.20;99.90;;;;;;5110337;27;20062;-69
2021/12/13 02:09:16;;;;;;;121.15;28.60;;;10.20;99.90;;;;;;5112257;27;20435;-71
2021/12/13 02:11:46;;;;;;;110.63;28.40;;;10.20;99.90;;;;;;5114286;27;20569;-70
2021/12/13 02:14:18;;;;;;;105.55;30.35;;;10.20;99.90;;;;;;5113303;27;20031;-71
2021/12/13 02:17:10;;;;;;;101.67;28.57;;;10.20;99.90;;;;;;5114267;27;20027;-71
2021/12/13 02:19:44;;;;;;;102.40;26.83;;;10.20;99.90;;;;;;5117071;27;20130;-73
2021/12/13 02:22:32;;;;;;;94.88;27.02;;;10.20;99.90;;;;;;5114112;27;20078;-71
2021/12/13 02:25:07;;;;;;;99.80;28.73;;;10.20;99.90;;;;;;5113733;27;20100;-69
2021/12/13 02:27:36;;;;;;;98.28;28.63;;;10.10;99.90;;;;;;5112263;27;20489;-72
2021/12/13 02:30:11;;;;;;;96.28;27.92;;;10.10;99.90;;;;;;5113288;27;20492;-71
2021/12/13 02:32:40;;;;;;;83.88;26.83;;;10.10;99.90;;;;;;5112614;27;20035;-69
2021/12/13 02:35:07;;;;;;;93.50;27.73;;;10.10;99.90;;;;;;5113459;27;20047;-70
2021/12/13 02:37:33;;;;;;;84.50;28.20;;;10.00;99.90;;;;;;5112550;27;21247;-71
2021/12/13 02:39:59;;;;;;;78.00;26.73;;;10.10;99.90;;;;;;5094625;27;20410;-69
2021/12/13 02:42:27;;;;;;;89.60;27.20;;;10.00;99.90;;;;;;5113827;27;20121;-70
2021/12/13 02:45:00;;;;;;;83.03;25.63;;;10.10;99.90;;;;;;5113648;27;20077;-71
2021/12/13 02:47:36;;;;;;;74.70;25.13;;;10.00;99.90;;;;;;5113067;27;20043;-69
2021/12/13 02:50:06;;;;;;;79.47;25.55;;;10.00;99.90;;;;;;5113850;27;20039;-72
2021/12/13 02:52:32;;;;;;;77.28;24.60;;;10.00;99.90;;;;;;5113291;27;20031;-70
2021/12/13 02:55:07;;;;;;;72.38;24.65;;;10.00;99.90;;;;;;5110592;27;20095;-70
2021/12/13 02:57:38;;;;;;;72.10;24.67;;;10.00;99.90;;;;;;5113074;27;20039;-72
2021/12/13 03:00:16;;;;;;;79.80;23.58;;;9.90;99.90;;;;;;5113332;27;20042;-69
2021/12/13 03:02:44;;;;;;;69.50;21.85;;;9.90;99.90;;;;;;5110208;27;20498;-71
2021/12/13 03:05:21;;;;;;;60.97;21.40;;;9.80;99.90;;;;;;5096127;27;20510;-72
2021/12/13 03:07:52;;;;;;;57.85;21.00;;;9.80;99.90;;;;;;5113158;27;20417;-71
2021/12/13 03:10:27;;;;;;;57.10;20.17;;;9.70;99.90;;;;;;5108985;27;20035;-71
2021/12/13 03:12:53;;;;;;;58.53;18.77;;;9.70;99.90;;;;;;5113084;27;20041;-71
2021/12/13 03:15:23;;;;;;;54.35;18.38;;;9.70;99.90;;;;;;5113269;27;20027;-72
2021/12/13 03:18:11;;;;;;;45.65;17.40;;;9.70;99.90;;;;;;5110944;27;20047;-70
2021/12/13 03:21:02;;;;;;;47.90;16.63;;;9.70;99.90;;;;;;5110991;27;20035;-72
2021/12/13 03:24:05;;;;;;;42.53;14.77;;;9.70;99.90;;;;;;5111860;27;20077;-71
2021/12/13 03:26:57;;;;;;;54.53;16.27;;;9.70;99.90;;;;;;5089850;27;20192;-70
2021/12/13 03:30:11;;;;;;;42.67;14.75;;;9.70;99.90;;;;;;5110928;27;20118;-68
2021/12/13 03:32:52;;;;;;;40.70;13.55;;;9.70;99.90;;;;;;5055437;28;20043;-71
2021/12/13 03:35:36;;;;;;;40.55;14.35;;;9.70;99.90;;;;;;5108026;28;20042;-72
2021/12/13 03:38:10;;;;;;;44.00;15.02;;;9.70;99.90;;;;;;5095280;28;20074;-70
2021/12/13 03:40:35;;;;;;;46.30;13.18;;;9.70;99.90;;;;;;5109206;28;20039;-69
2021/12/13 03:43:09;;;;;;;35.65;13.27;;;9.60;99.90;;;;;;5094263;27;20049;-70
2021/12/13 03:45:45;;;;;;;40.22;12.15;;;9.70;99.90;;;;;;5111503;28;20446;-70
2021/12/13 03:48:14;;;;;;;32.28;12.15;;;9.60;99.90;;;;;;5113198;28;20058;-70
2021/12/13 03:50:44;;;;;;;38.63;13.30;;;9.60;99.90;;;;;;5111357;28;20490;-69
2021/12/13 03:53:16;;;;;;;36.50;12.60;;;9.50;99.90;;;;;;5112866;28;20030;-70
2021/12/13 03:55:46;;;;;;;39.17;12.75;;;9.50;99.90;;;;;;5114855;27;20379;-70
2021/12/13 03:58:15;;;;;;;45.80;12.75;;;9.50;99.90;;;;;;5113059;27;20078;-69
2021/12/13 04:00:49;;;;;;;42.10;13.13;;;9.50;99.90;;;;;;5100035;27;20118;-69
2021/12/13 04:03:17;;;;;;;40.60;13.30;;;9.40;99.90;;;;;;5114854;27;20073;-69
2021/12/13 04:05:43;;;;;;;43.83;14.10;;;9.40;99.90;;;;;;5117137;27;20038;-70
2021/12/13 04:08:11;;;;;;;43.85;14.95;;;9.40;99.90;;;;;;5116739;27;20073;-70
2021/12/13 04:10:41;;;;;;;42.75;15.25;;;9.40;99.90;;;;;;5114885;27;20035;-69
2021/12/13 04:13:13;;;;;;;46.15;15.95;;;9.40;99.90;;;;;;5113364;27;20438;-70
2021/12/13 04:15:52;;;;;;;;;;;9.30;99.90;;;;;;5114944;27;20035;-69
2021/12/13 04:18:41;;;;;;;51.50;16.30;;;9.30;99.90;;;;;;5117571;27;19960;-68
2021/12/13 04:21:08;;;;;;;53.47;16.70;;;9.30;99.90;;;;;;5116872;27;20039;-70
2021/12/13 04:23:35;;;;;;;46.08;16.33;;;9.30;99.90;;;;;;5116551;27;20039;-69
2021/12/13 04:26:04;;;;;;;52.15;16.48;;;9.30;99.90;;;;;;5115854;27;20114;-68
2021/12/13 04:28:41;;;;;;;49.85;15.23;;;9.30;99.90;;;;;;5112070;27;20402;-71
2021/12/13 04:31:11;;;;;;;47.85;15.77;;;9.30;99.90;;;;;;5115971;27;20374;-69
2021/12/13 04:33:43;;;;;;;47.58;15.60;;;9.30;99.90;;;;;;5111311;27;20042;-70
2021/12/13 04:36:16;;;;;;;44.13;15.00;;;9.30;99.90;;;;;;5111198;27;20497;-69
2021/12/13 04:39:06;;;;;;;39.30;14.25;;;9.30;99.90;;;;;;5114957;27;20385;-69
2021/12/13 04:42:15;;;;;;;42.45;13.60;;;9.30;99.90;;;;;;5097983;27;20053;-69
2021/12/13 04:44:51;;;;;;;45.72;12.68;;;9.30;99.90;;;;;;5114754;27;20505;-70
2021/12/13 04:47:22;;;;;;;38.35;12.68;;;9.30;99.90;;;;;;5105986;27;20371;-69
2021/12/13 04:49:59;;;;;;;37.28;11.90;;;9.30;99.90;;;;;;5097592;27;20035;-70
2021/12/13 04:52:25;;;;;;;37.80;11.35;;;9.30;99.90;;;;;;5110620;27;20437;-69
2021/12/13 04:54:54;;;;;;;37.00;11.55;;;9.30;99.90;;;;;;5109239;27;20039;-69
2021/12/13 04:57:22;;;;;;;34.25;11.68;;;9.30;99.90;;;;;;5097501;27;20038;-69
2021/12/13 04:59:51;;;;;;;31.20;11.82;;;9.30;99.90;;;;;;5114089;27;20370;-69
2021/12/13 05:02:17;;;;;;;29.45;10.43;;;9.30;99.90;;;;;;5109959;27;20089;-70
2021/12/13 05:04:43;;;;;;;33.28;10.63;;;9.30;99.90;;;;;;5114745;27;20071;-68
2021/12/13 05:07:09;;;;;;;34.67;11.27;;;9.30;99.90;;;;;;5096980;27;20081;-68
2021/12/13 05:09:36;;;;;;;31.38;11.05;;;9.30;99.90;;;;;;5111729;27;20084;-69
2021/12/13 05:12:01;;;;;;;27.15;10.38;;;9.30;99.90;;;;;;5115450;27;20053;-69
2021/12/13 05:14:34;;;;;;;27.08;10.52;;;9.30;99.90;;;;;;5115916;27;20573;-69
2021/12/13 05:17:20;;;;;;;29.33;10.75;;;9.30;99.90;;;;;;5113436;27;20043;-68
2021/12/13 05:19:50;;;;;;;39.45;11.77;;;9.30;99.90;;;;;;5115097;27;20035;-69
2021/12/13 05:22:18;;;;;;;29.88;11.10;;;9.30;99.90;;;;;;5108624;27;20080;-68
2021/12/13 05:24:51;;;;;;;35.95;11.57;;;9.30;99.90;;;;;;5114190;27;20039;-68
2021/12/13 05:27:28;;;;;;;31.67;11.75;;;9.30;99.90;;;;;;5113663;27;20076;-69
2021/12/13 05:30:23;;;;;;;36.58;12.18;;;9.30;99.90;;;;;;5113761;27;20054;-68
2021/12/13 05:33:00;;;;;;;29.77;11.73;;;9.30;99.90;;;;;;5111601;27;20074;-69
2021/12/13 05:35:39;;;;;;;34.88;12.73;;;9.30;99.90;;;;;;5113216;27;20031;-69
2021/12/13 05:38:09;;;;;;;32.85;12.48;;;9.20;99.90;;;;;;5112113;27;20055;-69
2021/12/13 05:40:45;;;;;;;41.67;13.30;;;9.30;99.90;;;;;;5114095;27;20027;-69
2021/12/13 05:43:27;;;;;;;33.72;13.50;;;9.20;99.90;;;;;;5112141;27;20107;-68
2021/12/13 05:46:25;;;;;;;33.80;13.63;;;9.20;99.90;;;;;;5112866;27;20046;-69
2021/12/13 05:48:54;;;;;;;43.70;14.48;;;9.20;99.90;;;;;;5112612;27;20406;-70
2021/12/13 05:51:43;;;;;;;42.25;15.00;;;9.20;99.90;;;;;;5113923;27;20035;-69
2021/12/13 05:54:12;;;;;;;43.55;15.45;;;9.20;99.90;;;;;;5112832;27;20138;-68
2021/12/13 05:57:06;;;;;;;50.38;16.58;;;9.20;99.90;;;;;;5096501;27;20042;-68
2021/12/13 05:59:53;;;;;;;51.10;17.02;;;9.20;99.90;;;;;;5123018;27;20117;-70
2021/12/13 06:02:51;;;;;;;50.35;17.48;;;9.20;99.90;;;;;;5113246;27;20039;-69
2021/12/13 06:05:21;;;;;;;45.67;17.77;;;9.20;99.90;;;;;;5120382;27;20035;-69
2021/12/13 06:08:04;;;;;;;50.40;18.15;;;9.20;99.90;;;;;;5113584;27;20128;-69
2021/12/13 06:10:49;;;;;;;48.92;19.05;;;9.20;99.90;;;;;;5093233;27;20426;-69
2021/12/13 06:13:41;;;;;;;54.70;20.08;;;9.20;99.90;;;;;;5113281;27;20035;-70
2021/12/13 06:16:07;;;;;;;59.80;21.15;;;9.20;99.90;;;;;;5109399;27;20035;-69
2021/12/13 06:18:42;;;;;;;56.42;20.80;;;9.20;99.90;;;;;;5108937;27;20101;-70
2021/12/13 06:21:28;;;;;;;60.67;20.30;;;9.20;99.90;;;;;;5111838;27;20092;-69
2021/12/13 06:23:54;;;;;;;61.03;21.13;;;9.20;99.90;;;;;;5113761;27;20063;-69
2021/12/13 06:26:27;;;;;;;62.35;23.30;;;9.20;99.90;;;;;;5095566;27;20125;-69
2021/12/13 06:28:59;;;;;;;60.33;22.85;;;9.20;99.90;;;;;;5112600;27;20042;-70
2021/12/13 06:31:36;;;;;;;66.38;24.00;;;9.20;99.90;;;;;;5113374;27;20578;-69
2021/12/13 06:34:07;;;;;;;67.43;24.10;;;9.20;99.90;;;;;;5109387;27;20134;-70
2021/12/13 06:36:41;;;;;;;64.78;24.08;;;9.20;99.90;;;;;;5106321;27;20058;-69
2021/12/13 06:39:08;;;;;;;63.47;24.10;;;9.20;99.90;;;;;;5112847;27;20122;-69
2021/12/13 06:41:38;;;;;;;69.50;26.55;;;9.20;99.90;;;;;;5112251;27;20039;-69
2021/12/13 06:44:17;;;;;;;70.22;26.83;;;9.20;99.90;;;;;;5112507;27;20064;-68
2021/12/13 06:46:49;;;;;;;67.70;26.08;;;9.20;99.90;;;;;;5113098;27;20035;-69
2021/12/13 06:49:20;;;;;;;75.55;27.75;;;9.20;99.90;;;;;;5112822;27;20416;-69
2021/12/13 06:51:54;;;;;;;72.53;28.92;;;9.20;99.90;;;;;;5114219;27;20039;-69
2021/12/13 06:54:40;;;;;;;77.13;28.25;;;9.20;99.90;;;;;;5096699;27;20031;-69
2021/12/13 06:57:15;;;;;;;74.45;28.25;;;9.20;99.90;;;;;;5096596;27;20092;-69
2021/12/13 07:00:10;;;;;;;80.07;29.55;;;9.20;99.90;;;;;;5112946;27;20039;-69
2021/12/13 07:02:35;;;;;;;79.53;28.58;;;9.20;99.90;;;;;;5088253;27;20095;-69
2021/12/13 07:05:07;;;;;;;81.03;29.45;;;9.20;99.90;;;;;;5108169;27;20055;-69
2021/12/13 07:07:52;;;;;;;82.53;30.33;;;9.20;99.90;;;;;;5112409;27;20280;-70
2021/12/13 07:10:26;;;;;;;89.80;31.45;;;9.20;99.90;;;;;;5103748;27;20031;-69
2021/12/13 07:12:57;;;;;;;83.93;31.20;;;9.20;99.90;;;;;;5112046;27;20035;-68
2021/12/13 07:15:35;;;;;;;81.30;30.33;;;9.20;99.90;;;;;;5111227;27;20083;-69
2021/12/13 07:18:07;;;;;;;86.53;31.17;;;9.20;99.90;;;;;;5107378;27;20047;-68
2021/12/13 07:21:02;;;;;;;89.70;32.33;;;9.20;99.90;;;;;;5112514;27;20086;-68
2021/12/13 07:23:48;;;;;;;83.18;30.83;;;9.20;99.90;;;;;;5110140;27;20042;-70
2021/12/13 07:26:14;;;;;;;86.15;31.23;;;9.20;99.90;;;;;;5093975;28;20047;-68
2021/12/13 07:28:40;;;;;;;87.75;32.20;;;9.20;99.90;;;;;;5074794;27;20092;-69
2021/12/13 07:31:08;;;;;;;87.43;31.35;;;9.20;99.90;;;;;;5103258;28;20124;-69
2021/12/13 07:33:43;;;;;;;85.20;32.95;;;9.20;99.90;;;;;;5107851;27;20039;-69
2021/12/13 07:36:27;;;;;;;90.10;31.60;;;9.20;99.90;;;;;;5107572;28;20482;-70
2021/12/13 07:38:57;;;;;;;92.20;32.15;;;9.20;99.90;;;;;;5110904;28;20138;-69
2021/12/13 07:41:25;;;;;;;87.22;32.33;;;9.20;99.90;;;;;;5106480;28;20058;-69
2021/12/13 07:43:51;;;;;;;86.07;32.53;;;9.20;99.90;;;;;;5109384;28;20067;-69
2021/12/13 07:46:20;;;;;;;95.07;33.30;;;9.10;99.90;;;;;;5111028;28;21506;-68
2021/12/13 07:48:45;;;;;;;94.57;33.83;;;9.10;99.90;;;;;;5108714;27;20062;-69
2021/12/13 07:51:31;;;;;;;85.95;32.38;;;9.10;99.90;;;;;;5110984;28;20461;-69
2021/12/13 07:53:57;;;;;;;92.20;33.60;;;9.10;99.90;;;;;;5109570;28;20052;-70
2021/12/13 07:56:39;;;;;;;86.78;32.08;;;9.10;99.90;;;;;;5110603;28;20780;-69
2021/12/13 07:59:16;;;;;;;89.88;31.67;;;9.10;99.90;;;;;;5104109;28;20132;-69
2021/12/13 08:01:45;;;;;;;87.65;32.10;;;9.10;99.90;;;;;;5109393;28;20039;-68
2021/12/13 08:04:17;;;;;;;91.95;32.58;;;9.10;99.90;;;;;;5116023;28;20074;-69
2021/12/13 08:07:05;;;;;;;84.72;31.65;;;9.10;99.90;;;;;;5112236;28;20109;-69
2021/12/13 08:09:31;;;;;;;80.07;30.55;;;9.10;99.90;;;;;;5112147;28;20039;-69
2021/12/13 08:12:12;;;;;;;83.53;31.65;;;9.10;99.90;;;;;;5094994;28;20037;-70
2021/12/13 08:14:41;;;;;;;80.07;29.55;;;9.10;99.90;;;;;;5108062;27;20107;-70
2021/12/13 08:17:22;;;;;;;80.22;30.10;;;9.10;99.90;;;;;;5105258;28;20049;-69
2021/12/13 08:20:04;;;;;;;77.97;29.65;;;9.10;99.90;;;;;;5112611;28;20043;-70
2021/12/13 08:22:31;;;;;;;76.85;29.33;;;9.10;99.90;;;;;;5112729;28;20043;-69
2021/12/13 08:25:01;;;;;;;80.70;29.60;;;9.10;99.90;;;;;;5108083;28;20031;-69
2021/12/13 08:27:41;;;;;;;77.60;29.80;;;9.10;99.90;;;;;;5095157;28;20520;-70
2021/12/13 08:30:12;;;;;;;76.53;29.58;;;9.10;99.90;;;;;;5110115;28;20042;-69
2021/12/13 08:32:52;;;;;;;76.38;30.05;;;9.10;99.90;;;;;;5107089;28;20118;-69
2021/12/13 08:35:18;;;;;;;79.50;28.25;;;9.20;99.90;;;;;;5091145;28;20035;-69
2021/12/13 08:37:45;;;;;;;69.53;28.20;;;9.20;99.90;;;;;;5107459;28;20040;-70
2021/12/13 08:40:24;;;;;;;70.65;28.30;;;9.20;99.90;;;;;;5091311;28;20631;-69
2021/12/13 08:42:51;;;;;;;72.47;27.50;;;9.20;99.90;;;;;;5104314;27;20062;-69
2021/12/13 08:45:31;;;;;;;71.18;27.70;;;9.20;99.90;;;;;;5102103;27;20051;-69
2021/12/13 08:48:04;;;;;;;63.80;27.00;;;9.20;99.90;;;;;;5096204;28;20139;-69
2021/12/13 08:50:37;;;;;;;71.13;27.15;;;9.20;99.90;;;;;;5095130;28;20177;-69
2021/12/13 08:53:10;;;;;;;76.60;28.48;;;9.30;99.90;;;;;;5104000;27;20043;-69
2021/12/13 08:55:40;;;;;;;72.20;27.00;;;9.30;99.90;;;;;;5096568;27;20027;-69
2021/12/13 08:58:12;;;;;;;67.97;26.65;;;9.30;99.90;;;;;;5112701;27;20035;-69
2021/12/13 09:00:45;;;;;;;71.95;26.95;;;9.30;99.90;;;;;;5110092;27;20047;-69
2021/12/13 09:03:10;;;;;;;75.07;26.73;;;9.30;99.90;;;;;;5111861;27;20470;-68
2021/12/13 09:05:50;;;;;;;73.75;27.42;;;9.30;99.90;;;;;;5113317;27;20070;-69
2021/12/13 09:08:18;;;;;;;70.55;26.80;;;9.30;99.90;;;;;;5112007;27;20368;-70
2021/12/13 09:10:47;;;;;;;72.22;26.80;;;9.30;99.90;;;;;;5093593;27;20031;-68
2021/12/13 09:13:15;;;;;;;66.50;26.90;;;9.40;99.90;;;;;;5113262;27;20038;-67
2021/12/13 09:15:42;;;;;;;71.40;27.13;;;9.40;99.90;;;;;;5113421;27;20042;-68
2021/12/13 09:18:22;;;;;;;70.20;27.10;;;9.40;99.90;;;;;;5113925;27;20047;-69
2021/12/13 09:20:52;;;;;;;69.32;26.52;;;9.30;99.90;;;;;;5111165;27;20074;-70
2021/12/13 09:23:43;;;;;;;70.72;27.10;;;9.40;99.90;;;;;;5113905;27;20035;-68
2021/12/13 09:26:14;;;;;;;74.40;26.60;;;9.40;99.90;;;;;;5109185;27;20055;-69
2021/12/13 09:28:44;;;;;;;71.47;26.75;;;9.40;99.90;;;;;;5112903;27;20035;-69
2021/12/13 09:31:22;;;;;;;71.88;27.98;;;9.50;99.90;;;;;;5094716;27;20039;-70
2021/12/13 09:33:55;;;;;;;70.47;27.00;;;9.50;99.90;;;;;;5112393;27;20410;-69
2021/12/13 09:36:26;;;;;;;72.88;27.63;;;9.50;99.90;;;;;;5112983;27;20042;-68
2021/12/13 09:38:55;;;;;;;73.57;26.92;;;9.50;99.90;;;;;;5097451;27;20200;-68
2021/12/13 09:41:46;;;;;;;71.50;26.45;;;9.50;99.90;;;;;;5114267;27;20553;-69
2021/12/13 09:44:12;;;;;;;75.70;27.57;;;9.50;99.90;;;;;;5114344;27;20049;-69
2021/12/13 09:46:56;;;;;;;66.13;25.98;;;9.60;99.90;;;;;;5114097;27;20384;-68
2021/12/13 09:49:24;;;;;;;70.53;26.45;;;9.60;99.90;;;;;;5108388;27;20096;-68
2021/12/13 09:51:50;;;;;;;71.13;27.15;;;9.60;99.90;;;;;;5112712;27;20023;-68
2021/12/13 09:54:18;;;;;;;67.85;25.60;;;9.60;99.90;;;;;;5096948;27;20176;-68
2021/12/13 09:56:49;;;;;;;67.75;25.65;;;9.60;99.90;;;;;;5099012;27;20083;-68
2021/12/13 09:59:27;;;;;;;69.85;27.67;;;9.60;99.90;;;;;;5115065;27;20046;-68
2021/12/13 10:01:55;;;;;;;69.75;27.35;;;9.60;99.90;;;;;;5096944;27;20385;-68
2021/12/13 10:04:30;;;;;;;69.30;26.50;;;9.60;99.90;;;;;;5112989;27;20120;-68
2021/12/13 10:07:02;;;;;;;64.75;25.55;;;9.60;99.90;;;;;;5113159;27;20031;-68
2021/12/13 10:09:56;;;;;;;74.43;26.17;;;9.60;99.90;;;;;;5112179;27;20266;-68
2021/12/13 10:12:41;;;;;;;73.57;26.75;;;9.60;99.90;;;;;;5097390;27;20231;-69
2021/12/13 10:15:19;;;;;;;72.85;26.23;;;9.60;99.90;;;;;;5114789;27;20050;-67
2021/12/13 10:17:48;;;;;;;68.95;25.58;;;9.70;99.90;;;;;;5115616;27;20038;-68
2021/12/13 10:20:23;;;;;;;70.35;26.08;;;9.60;99.90;;;;;;5115036;27;20103;-67
2021/12/13 10:22:49;;;;;;;63.55;25.08;;;9.70;99.90;;;;;;5113227;27;20042;-68
2021/12/13 10:25:37;;;;;;;67.50;24.55;;;9.60;99.90;;;;;;5106574;27;20497;-68
2021/12/13 10:28:09;;;;;;;71.63;25.80;;;9.70;99.90;;;;;;5112202;27;20039;-68
2021/12/13 10:30:41;;;;;;;67.35;25.83;;;9.60;99.90;;;;;;5112627;27;20039;-68
2021/12/13 10:33:08;;;;;;;65.25;25.38;;;9.60;99.90;;;;;;5123235;27;20422;-68
2021/12/13 10:35:37;;;;;;;67.40;25.55;;;9.60;99.90;;;;;;5114204;27;20405;-70
2021/12/13 10:38:17;;;;;;;65.85;24.85;;;9.60;99.90;;;;;;5106204;27;20485;-71
2021/12/13 10:41:00;;;;;;;67.82;25.40;;;9.60;99.90;;;;;;5101777;27;20084;-68
2021/12/13 10:43:31;;;;;;;66.25;25.30;;;9.70;99.90;;;;;;5110925;27;20099;-68
2021/12/13 10:46:11;;;;;;;72.75;25.08;;;9.60;99.90;;;;;;5115576;27;20092;-68
2021/12/13 10:48:44;;;;;;;62.75;24.40;;;9.70;99.90;;;;;;5098007;27;20043;-68
2021/12/13 10:51:17;;;;;;;65.57;25.48;;;9.80;99.90;;;;;;5115699;27;20459;-68
2021/12/13 10:53:46;;;;;;;64.05;24.73;;;9.80;99.90;;;;;;5116423;27;20571;-67
2021/12/13 10:56:20;;;;;;;65.38;24.17;;;9.80;99.90;;;;;;5108981;27;20069;-69
2021/12/13 10:58:48;;;;;;;64.47;24.83;;;9.80;99.90;;;;;;5113711;27;20146;-70
2021/12/13 11:01:26;;;;;;;61.70;23.50;;;9.80;99.90;;;;;;5105186;27;20079;-68
2021/12/13 11:03:54;;;;;;;57.25;23.17;;;9.80;99.90;;;;;;5103847;27;20053;-68
2021/12/13 11:06:21;;;;;;;62.28;23.60;;;9.90;99.90;;;;;;5114579;27;20122;-69
2021/12/13 11:08:49;;;;;;;61.83;23.58;;;9.90;99.90;;;;;;5115679;27;20056;-68
2021/12/13 11:11:23;;;;;;;63.75;24.15;;;9.90;99.90;;;;;;5109431;27;20047;-68
2021/12/13 11:13:56;;;;;;;68.40;24.25;;;9.90;99.90;;;;;;5116140;27;20143;-69
2021/12/13 11:16:35;;;;;;;71.13;25.52;;;9.90;99.90;;;;;;5114324;27;20134;-68
2021/12/13 11:19:04;;;;;;;64.05;23.92;;;9.90;99.90;;;;;;5115562;27;20054;-69
2021/12/13 11:21:37;;;;;;;62.88;24.05;;;9.90;99.90;;;;;;5115640;27;20042;-67
2021/12/13 11:24:06;;;;;;;58.08;22.63;;;9.90;99.90;;;;;;5115899;27;20039;-68
2021/12/13 11:26:35;;;;;;;61.58;23.63;;;9.90;99.90;;;;;;5113058;27;20102;-68
2021/12/13 11:29:02;;;;;;;64.03;23.77;;;9.90;99.90;;;;;;5115484;27;20393;-67
2021/12/13 11:31:30;;;;;;;59.00;23.38;;;9.90;99.90;;;;;;5115644;28;20401;-69
2021/12/13 11:34:03;;;;;;;62.20;22.58;;;9.90;99.90;;;;;;5115493;28;20127;-67
2021/12/13 11:36:50;;;;;;;58.78;21.83;;;9.90;99.90;;;;;;5116124;28;20473;-67
2021/12/13 11:39:48;;;;;;;56.50;22.15;;;9.90;99.90;;;;;;5111079;27;20047;-68
2021/12/13 11:42:51;;;;;;;62.22;22.52;;;9.90;99.90;;;;;;5095969;28;20035;-68
2021/12/13 11:45:35;;;;;;;59.17;22.35;;;9.90;99.90;;;;;;5115550;28;20121;-68
2021/12/13 11:48:28;;;;;;;52.75;20.80;;;10.00;99.90;;;;;;5105670;28;20058;-67
2021/12/13 11:51:38;;;;;;;54.90;20.75;;;10.00;99.90;;;;;;5113342;28;20050;-68
2021/12/13 11:54:13;;;;;;;50.25;21.35;;;10.00;99.90;;;;;;5101414;28;20492;-68
2021/12/13 11:57:11;;;;;;;59.22;22.02;;;10.00;99.90;;;;;;5109984;28;20118;-68
2021/12/13 12:00:11;;;;;;;59.85;22.38;;;10.00;99.90;;;;;;5108670;28;20138;-68
2021/12/13 12:03:30;;;;;;;56.65;20.85;;;10.00;99.90;;;;;;5115096;28;20035;-68
2021/12/13 12:06:18;;;;;;;52.05;20.45;;;10.00;99.90;;;;;;5112349;28;20123;-68
2021/12/13 12:09:16;;;;;;;63.78;22.33;;;10.00;99.90;;;;;;5115157;28;20047;-69
2021/12/13 12:12:12;;;;;;;60.28;21.20;;;10.00;99.90;;;;;;5115493;28;20039;-68
2021/12/13 12:14:38;;;;;;;50.90;21.10;;;10.00;99.90;;;;;;5114311;28;20035;-69
2021/12/13 12:17:14;;;;;;;59.00;21.55;;;10.00;99.90;;;;;;5116420;27;20039;-68
2021/12/13 12:19:41;;;;;;;60.85;20.77;;;10.10;99.90;;;;;;5117930;27;20501;-69
2021/12/13 12:22:15;;;;;;;60.45;22.73;;;10.10;99.90;;;;;;5096811;28;20440;-69
2021/12/13 12:24:49;;;;;;;57.45;21.13;;;10.10;99.90;;;;;;5117047;27;20043;-68
2021/12/13 12:27:22;;;;;;;61.28;22.27;;;10.10;99.90;;;;;;5113578;27;20427;-69
2021/12/13 12:29:54;;;;;;;53.05;21.35;;;10.10;99.90;;;;;;5096387;28;20486;-69
2021/12/13 12:32:30;;;;;;;54.42;21.30;;;10.20;99.90;;;;;;5117227;27;20126;-68
2021/12/13 12:35:03;;;;;;;55.05;21.92;;;10.20;99.90;;;;;;5112934;27;21364;-69
2021/12/13 12:37:30;;;;;;;54.55;20.83;;;10.20;99.90;;;;;;5109961;28;20047;-70
2021/12/13 12:40:08;;;;;;;57.45;22.67;;;10.30;99.90;;;;;;5097789;28;20126;-69
2021/12/13 12:42:47;;;;;;;54.38;21.25;;;10.30;99.90;;;;;;5097552;28;20093;-68
2021/12/13 12:45:26;;;;;;;55.95;21.35;;;10.30;99.90;;;;;;5122039;27;20074;-69
2021/12/13 12:48:11;;;;;;;54.80;21.67;;;10.30;99.90;;;;;;5113027;28;20529;-69
2021/12/13 12:50:43;;;;;;;58.92;21.70;;;10.30;99.90;;;;;;5097110;28;20036;-69
2021/12/13 12:53:16;;;;;;;58.65;22.42;;;10.30;99.90;;;;;;5116738;27;20042;-69
2021/12/13 12:55:52;;;;;;;57.15;22.13;;;10.30;99.90;;;;;;5097479;27;20401;-70
2021/12/13 12:59:04;;;;;;;64.63;22.45;;;10.30;99.90;;;;;;5117763;27;20494;-69
2021/12/13 13:01:35;;;;;;;61.70;23.00;;;10.30;99.90;;;;;;5101563;27;20095;-68
2021/12/13 13:04:23;;;;;;;52.63;21.17;;;10.30;99.90;;;;;;5117899;27;20039;-69
2021/12/13 13:06:53;;;;;;;55.03;21.05;;;10.30;99.90;;;;;;5117403;27;20076;-68
2021/12/13 13:09:19;;;;;;;54.78;21.20;;;10.30;99.90;;;;;;5106156;28;20078;-69
2021/12/13 13:11:48;;;;;;;61.00;22.52;;;10.30;99.90;;;;;;5108184;28;20067;-68
2021/12/13 13:14:30;;;;;;;56.67;21.80;;;10.30;99.90;;;;;;5111723;27;20039;-68
2021/12/13 13:17:03;;;;;;;57.22;21.30;;;10.30;99.90;;;;;;5100556;27;20035;-68
2021/12/13 13:19:35;;;;;;;54.55;21.20;;;10.30;99.90;;;;;;5117294;27;20483;-71